Time;durP1;ratioP1;P1;durP2;ratioP2;P2;SDS_P1;SDS_P2;PMS_P1;PMS_P2;Temp;Humidity;BMP_temperature;BMP_pressure;BME280_temperature;BME280_humidity;BME280_pressure;Samples;Min_cycle;Max_cycle;Signal;HPM_P1;HPM_P2
2023/10/08 00:02:21;;;;;;;8.20;8.10;;;17.90;99.90;;;;;;5100412;28;20475;-66
2023/10/08 00:04:50;;;;;;;9.23;9.03;;;17.80;99.90;;;;;;5094418;28;20501;-67
2023/10/08 00:07:21;;;;;;;8.53;8.43;;;17.70;99.90;;;;;;5096381;28;20455;-68
2023/10/08 00:09:50;;;;;;;9.50;9.30;;;17.70;99.90;;;;;;5093906;28;20461;-67
2023/10/08 00:12:20;;;;;;;8.40;8.30;;;17.60;99.90;;;;;;5099557;28;20457;-67
2023/10/08 00:14:49;;;;;;;8.27;8.17;;;17.50;99.90;;;;;;5095835;28;20468;-66
2023/10/08 00:17:18;;;;;;;8.70;8.60;;;17.50;99.90;;;;;;5089926;28;20851;-67
2023/10/08 00:19:52;;;;;;;9.50;9.30;;;17.40;99.90;;;;;;5102320;28;20465;-67
2023/10/08 00:22:20;;;;;;;9.27;9.07;;;17.40;99.90;;;;;;5091380;28;20462;-68
2023/10/08 00:24:49;;;;;;;8.40;8.30;;;17.40;99.90;;;;;;5091833;28;20591;-66
2023/10/08 00:27:17;;;;;;;8.47;8.37;;;17.40;99.90;;;;;;5099505;28;20449;-67
2023/10/08 00:29:47;;;;;;;8.80;8.70;;;17.40;99.90;;;;;;5108903;28;20456;-67
2023/10/08 00:32:15;;;;;;;8.67;8.57;;;17.40;99.90;;;;;;5105535;28;20466;-66
2023/10/08 00:34:42;;;;;;;8.83;8.73;;;17.40;99.90;;;;;;5100051;28;20453;-66
2023/10/08 00:37:11;;;;;;;8.20;8.10;;;17.50;99.90;;;;;;5094382;28;20551;-66
2023/10/08 00:39:40;;;;;;;8.30;8.20;;;17.50;99.90;;;;;;5100925;28;20976;-67
2023/10/08 00:42:08;;;;;;;8.90;8.80;;;17.50;99.90;;;;;;5099818;28;20549;-67
2023/10/08 00:44:41;;;;;;;8.63;8.53;;;17.50;99.90;;;;;;5096555;28;20899;-67
2023/10/08 00:47:11;;;;;;;8.20;8.10;;;17.50;99.90;;;;;;5097261;28;20449;-67
2023/10/08 00:49:54;;;;;;;9.20;9.00;;;17.50;99.90;;;;;;5099042;28;20441;-67
2023/10/08 00:52:29;;;;;;;8.77;8.67;;;17.60;99.90;;;;;;5092341;28;20817;-67
2023/10/08 00:55:07;;;;;;;8.63;8.53;;;17.50;99.90;;;;;;5099363;28;20762;-68
2023/10/08 00:57:36;;;;;;;8.70;8.60;;;17.50;99.90;;;;;;5090015;28;20461;-67
2023/10/08 01:00:14;;;;;;;8.40;8.30;;;17.50;99.90;;;;;;5107677;28;20449;-67
2023/10/08 01:02:45;;;;;;;9.10;8.97;;;17.40;99.90;;;;;;5086424;28;20541;-67
2023/10/08 01:05:14;;;;;;;8.77;8.67;;;17.30;99.90;;;;;;5102410;28;21069;-67
2023/10/08 01:07:44;;;;;;;8.80;8.70;;;17.20;99.90;;;;;;5089329;28;20467;-66
2023/10/08 01:10:13;;;;;;;8.83;8.73;;;17.20;99.90;;;;;;5095321;28;20465;-67
2023/10/08 01:12:54;;;;;;;9.40;9.20;;;17.10;99.90;;;;;;5099722;28;20506;-68
2023/10/08 01:15:28;;;;;;;8.77;8.67;;;17.00;99.90;;;;;;5096508;28;20552;-67
2023/10/08 01:18:00;;;;;;;9.10;8.93;;;16.90;99.90;;;;;;5095803;27;20922;-67
2023/10/08 01:20:36;;;;;;;9.50;9.30;;;16.80;99.90;;;;;;5097702;28;20455;-66
2023/10/08 01:23:09;;;;;;;8.80;8.70;;;16.70;99.90;;;;;;5094553;28;20457;-68
2023/10/08 01:25:37;;;;;;;8.50;8.40;;;16.70;99.90;;;;;;5096733;28;20461;-68
2023/10/08 01:28:14;;;;;;;8.90;8.80;;;16.60;99.90;;;;;;5095138;28;20964;-68
2023/10/08 01:30:46;;;;;;;9.20;9.03;;;16.50;99.90;;;;;;5096372;28;20449;-67
2023/10/08 01:33:16;;;;;;;8.40;8.30;;;16.50;99.90;;;;;;5103151;28;20968;-67
2023/10/08 01:35:43;;;;;;;7.93;7.83;;;16.50;99.90;;;;;;5093063;28;20465;-67
2023/10/08 01:38:13;;;;;;;8.00;7.90;;;16.40;99.90;;;;;;5095133;27;20872;-67
2023/10/08 01:40:41;;;;;;;8.37;8.27;;;16.30;99.90;;;;;;5107487;28;20510;-67
2023/10/08 01:43:09;;;;;;;8.30;8.20;;;16.30;99.90;;;;;;5093607;28;21131;-68
2023/10/08 01:45:40;;;;;;;8.50;8.40;;;16.20;99.90;;;;;;5096994;28;20461;-67
2023/10/08 01:48:09;;;;;;;8.13;8.03;;;16.20;99.90;;;;;;5089955;28;20560;-66
2023/10/08 01:50:37;;;;;;;9.00;8.90;;;16.10;99.90;;;;;;5107351;28;20632;-68
2023/10/08 01:53:09;;;;;;;8.10;8.00;;;16.00;99.90;;;;;;5095067;28;20457;-67
2023/10/08 01:55:48;;;;;;;8.50;8.40;;;16.00;99.90;;;;;;5102738;28;20569;-67
2023/10/08 01:58:16;;;;;;;8.97;8.83;;;16.00;99.90;;;;;;5087554;28;21042;-67
2023/10/08 02:00:45;;;;;;;9.20;9.00;;;16.00;99.90;;;;;;5092854;28;20609;-67
2023/10/08 02:03:15;;;;;;;8.87;8.77;;;15.90;99.90;;;;;;5087917;28;20816;-67
2023/10/08 02:05:43;;;;;;;8.60;8.50;;;16.00;99.90;;;;;;5096303;28;20466;-67
2023/10/08 02:08:12;;;;;;;8.60;8.50;;;16.00;99.90;;;;;;5096199;28;20522;-67
2023/10/08 02:10:42;;;;;;;8.60;8.50;;;16.00;99.90;;;;;;5103403;28;20515;-67
2023/10/08 02:13:10;;;;;;;8.37;8.27;;;16.00;99.90;;;;;;5097801;28;20461;-68
2023/10/08 02:15:38;;;;;;;8.60;8.50;;;15.90;99.90;;;;;;5103892;28;20481;-67
2023/10/08 02:18:06;;;;;;;9.03;8.90;;;15.90;99.90;;;;;;5088057;28;20462;-68
2023/10/08 02:20:34;;;;;;;8.20;8.10;;;15.90;99.90;;;;;;5088384;28;20474;-67
2023/10/08 02:23:01;;;;;;;8.37;8.27;;;15.90;99.90;;;;;;5088205;28;20462;-67
2023/10/08 02:25:28;;;;;;;9.20;9.00;;;15.90;99.90;;;;;;5086750;28;20473;-68
2023/10/08 02:27:57;;;;;;;8.13;8.03;;;16.00;99.90;;;;;;5092194;28;20906;-67
2023/10/08 02:30:24;;;;;;;8.70;8.60;;;16.00;99.90;;;;;;5100712;28;20495;-67
2023/10/08 02:32:52;;;;;;;8.30;8.20;;;16.00;99.90;;;;;;5092410;28;20450;-68
2023/10/08 02:35:19;;;;;;;8.23;8.13;;;16.00;99.90;;;;;;5096925;28;20553;-67
2023/10/08 02:37:47;;;;;;;8.27;8.17;;;16.00;99.90;;;;;;5101745;27;20464;-67
2023/10/08 02:40:25;;;;;;;9.40;9.20;;;16.00;99.90;;;;;;5101081;28;20575;-67
2023/10/08 02:42:52;;;;;;;8.70;8.60;;;16.10;99.90;;;;;;5100778;28;20917;-67
2023/10/08 02:45:21;;;;;;;8.70;8.60;;;16.20;99.90;;;;;;5101020;28;20556;-67
2023/10/08 02:47:48;;;;;;;9.50;9.30;;;16.20;99.90;;;;;;5098468;28;20454;-68
2023/10/08 02:50:17;;;;;;;8.80;8.70;;;16.20;99.90;;;;;;5097977;28;20461;-67
2023/10/08 02:52:45;;;;;;;8.97;8.87;;;16.20;99.90;;;;;;5097973;28;20461;-67
2023/10/08 02:55:24;;;;;;;8.67;8.57;;;16.20;99.90;;;;;;5103180;28;20485;-67
2023/10/08 02:57:51;;;;;;;8.93;8.83;;;16.20;99.90;;;;;;5098993;28;20465;-67
2023/10/08 03:00:20;;;;;;;9.80;9.60;;;16.10;99.90;;;;;;5104536;28;20571;-67
2023/10/08 03:02:49;;;;;;;8.67;8.57;;;16.10;99.90;;;;;;5095617;28;20967;-67
2023/10/08 03:05:19;;;;;;;8.63;8.53;;;16.00;99.90;;;;;;5095811;28;20708;-67
2023/10/08 03:07:51;;;;;;;8.40;8.30;;;16.10;99.90;;;;;;5103645;28;20918;-67
2023/10/08 03:10:18;;;;;;;8.93;8.83;;;16.00;99.90;;;;;;5096373;28;20456;-67
2023/10/08 03:12:47;;;;;;;9.27;9.07;;;16.00;99.90;;;;;;5096924;28;20815;-67
2023/10/08 03:15:28;;;;;;;8.80;8.70;;;16.00;99.90;;;;;;5098244;28;20838;-67
2023/10/08 03:17:59;;;;;;;9.43;9.23;;;16.00;99.90;;;;;;5111551;27;21054;-67
2023/10/08 03:20:37;;;;;;;8.93;8.83;;;16.10;99.90;;;;;;5101977;28;20527;-67
2023/10/08 03:23:13;;;;;;;8.90;8.80;;;16.00;99.90;;;;;;5096526;28;20601;-68
2023/10/08 03:25:42;;;;;;;8.67;8.57;;;16.00;99.90;;;;;;5093732;28;20978;-67
2023/10/08 03:28:12;;;;;;;8.60;8.50;;;16.10;99.90;;;;;;5097307;28;20492;-67
2023/10/08 03:30:49;;;;;;;8.73;8.63;;;16.00;99.90;;;;;;5095451;28;20438;-67
2023/10/08 03:33:22;;;;;;;8.33;8.23;;;16.00;99.90;;;;;;5101457;28;21014;-67
2023/10/08 03:35:52;;;;;;;7.70;7.60;;;15.90;99.90;;;;;;5091818;28;20450;-67
2023/10/08 03:38:22;;;;;;;8.70;8.60;;;15.90;99.90;;;;;;5102688;28;20461;-67
2023/10/08 03:40:50;;;;;;;8.77;8.67;;;15.90;99.90;;;;;;5099859;28;20461;-66
2023/10/08 03:43:24;;;;;;;8.80;8.70;;;15.80;99.90;;;;;;5089005;28;20489;-67
2023/10/08 03:45:54;;;;;;;8.50;8.40;;;15.80;99.90;;;;;;5098576;28;20457;-67
2023/10/08 03:48:24;;;;;;;8.90;8.80;;;15.80;99.90;;;;;;5098471;28;21088;-67
2023/10/08 03:50:56;;;;;;;8.70;8.60;;;15.70;99.90;;;;;;5096619;28;20774;-67
2023/10/08 03:53:24;;;;;;;8.57;8.47;;;15.70;99.90;;;;;;5100949;28;20461;-67
2023/10/08 03:55:54;;;;;;;8.53;8.43;;;15.70;99.90;;;;;;5100489;28;20777;-67
2023/10/08 03:58:29;;;;;;;8.33;8.23;;;15.70;99.90;;;;;;5102997;27;20457;-67
2023/10/08 04:01:08;;;;;;;8.70;8.60;;;15.60;99.90;;;;;;5091356;28;20510;-67
2023/10/08 04:03:57;;;;;;;9.97;9.77;;;15.80;99.90;;;;;;5102385;28;20924;-67
2023/10/08 04:06:30;;;;;;;9.03;8.90;;;15.90;99.90;;;;;;5090358;28;20545;-67
2023/10/08 04:09:11;;;;;;;8.73;8.63;;;16.00;99.90;;;;;;5090645;28;20466;-67
2023/10/08 04:11:51;;;;;;;9.43;9.23;;;16.00;99.90;;;;;;5092360;28;20449;-67
2023/10/08 04:14:19;;;;;;;9.00;8.90;;;16.00;99.90;;;;;;5090813;28;20817;-67
2023/10/08 04:16:51;;;;;;;9.40;9.20;;;16.00;99.90;;;;;;5093247;28;20861;-67
2023/10/08 04:19:20;;;;;;;8.90;8.80;;;15.90;99.90;;;;;;5109968;28;20619;-67
2023/10/08 04:21:53;;;;;;;9.47;9.27;;;15.80;99.90;;;;;;5108108;28;20548;-67
2023/10/08 04:24:28;;;;;;;8.87;8.77;;;15.80;99.90;;;;;;5092873;28;20481;-67
2023/10/08 04:26:59;;;;;;;8.73;8.63;;;15.70;99.90;;;;;;5103320;28;20471;-68
2023/10/08 04:29:31;;;;;;;9.97;9.77;;;15.70;99.90;;;;;;5093179;28;20821;-67
2023/10/08 04:32:07;;;;;;;9.83;9.63;;;15.70;99.90;;;;;;5103922;28;20445;-67
2023/10/08 04:34:36;;;;;;;9.40;9.20;;;15.60;99.90;;;;;;5097093;28;20457;-67
2023/10/08 04:37:12;;;;;;;9.73;9.53;;;15.60;99.90;;;;;;5102365;28;20453;-67
2023/10/08 04:39:40;;;;;;;9.20;9.00;;;15.70;99.90;;;;;;5087724;28;20489;-67
2023/10/08 04:42:10;;;;;;;9.50;9.30;;;15.60;99.90;;;;;;5095520;28;20479;-67
2023/10/08 04:44:39;;;;;;;9.83;9.63;;;15.60;99.90;;;;;;5102236;28;21043;-67
2023/10/08 04:47:31;;;;;;;9.60;9.40;;;15.60;99.90;;;;;;5102727;28;20468;-67
2023/10/08 04:49:56;;;;;;;9.67;9.47;;;15.50;99.90;;;;;;5099059;28;21035;-67
2023/10/08 04:52:25;;;;;;;9.90;9.70;;;15.50;99.90;;;;;;5109554;28;20564;-67
2023/10/08 04:54:54;;;;;;;9.20;9.00;;;15.50;99.90;;;;;;5091045;28;20551;-67
2023/10/08 04:57:22;;;;;;;9.90;9.70;;;15.50;99.90;;;;;;5103294;28;20449;-67
2023/10/08 04:59:50;;;;;;;9.87;9.67;;;15.40;99.90;;;;;;5096260;28;20496;-67
2023/10/08 05:02:29;;;;;;;9.70;9.50;;;15.40;99.90;;;;;;5097565;28;20578;-67
2023/10/08 05:05:21;;;;;;;9.67;9.47;;;15.40;99.90;;;;;;5086865;28;20988;-67
2023/10/08 05:10:45;;;;;;;9.30;9.10;;;15.30;99.90;;;;;;5095963;28;20449;-68
2023/10/08 05:13:30;;;;;;;9.00;8.90;;;15.10;99.90;;;;;;5086876;28;20468;-67
2023/10/08 05:16:35;;;;;;;9.60;9.40;;;15.10;99.90;;;;;;5096362;28;20489;-67
2023/10/08 05:19:07;;;;;;;8.60;8.50;;;14.90;99.90;;;;;;5100202;28;20534;-67
2023/10/08 05:21:51;;;;;;;9.23;9.03;;;14.90;99.90;;;;;;5099451;28;20831;-67
2023/10/08 05:24:27;;;;;;;9.20;9.00;;;14.80;99.90;;;;;;5092236;28;20473;-67
2023/10/08 05:27:15;;;;;;;9.93;9.73;;;14.80;99.90;;;;;;5087740;28;20540;-68
2023/10/08 05:29:52;;;;;;;9.43;9.23;;;14.80;99.90;;;;;;5098536;28;20776;-67
2023/10/08 05:32:38;;;;;;;8.93;8.83;;;14.70;99.90;;;;;;5092510;28;20775;-67
2023/10/08 05:38:12;;;;;;;8.80;8.70;;;14.60;99.90;;;;;;5088234;28;20453;-67
2023/10/08 05:41:04;;;;;;;8.67;8.57;;;14.50;99.90;;;;;;5094223;28;20485;-68
2023/10/08 05:43:55;;;;;;;8.20;8.10;;;14.40;99.90;;;;;;5098663;28;20637;-67
2023/10/08 05:46:46;;;;;;;8.20;8.10;;;14.40;99.90;;;;;;5090450;28;20502;-67
2023/10/08 05:49:43;;;;;;;8.80;8.70;;;14.30;99.90;;;;;;5090109;28;20956;-67
2023/10/08 05:52:26;;;;;;;8.90;8.80;;;14.30;99.90;;;;;;5093354;28;20472;-67
2023/10/08 05:57:46;;;;;;;8.57;8.47;;;14.20;99.90;;;;;;5090988;28;20569;-67
2023/10/08 06:03:31;;;;;;;8.13;8.03;;;14.20;99.90;;;;;;5085712;28;20465;-68
2023/10/08 06:11:44;;;;;;;7.40;7.30;;;14.20;99.90;;;;;;5092169;28;20461;-67
2023/10/08 06:14:16;;;;;;;7.70;7.60;;;14.20;99.90;;;;;;5087223;28;20472;-68
2023/10/08 06:16:44;;;;;;;7.73;7.63;;;14.20;99.90;;;;;;5087181;28;20489;-66
2023/10/08 06:19:12;;;;;;;7.57;7.47;;;14.20;99.90;;;;;;5088639;28;20461;-68
2023/10/08 06:21:39;;;;;;;8.13;8.03;;;14.30;99.90;;;;;;5108098;28;20532;-67
2023/10/08 06:24:09;;;;;;;7.93;7.83;;;14.40;99.90;;;;;;5096977;28;20965;-67
2023/10/08 06:26:42;;;;;;;7.43;7.33;;;14.60;99.90;;;;;;5086822;28;20512;-67
2023/10/08 06:29:26;;;;;;;7.30;7.20;;;14.70;99.90;;;;;;5091170;28;20465;-67
2023/10/08 06:31:55;;;;;;;7.13;7.03;;;14.80;99.90;;;;;;5089101;28;20466;-67
2023/10/08 06:34:27;;;;;;;7.20;7.10;;;15.00;99.90;;;;;;5100784;28;20473;-67
2023/10/08 06:36:55;;;;;;;7.00;6.90;;;15.00;99.90;;;;;;5092230;28;20544;-67
2023/10/08 06:39:25;;;;;;;7.50;7.40;;;15.00;99.90;;;;;;5089320;28;20480;-67
2023/10/08 06:41:57;;;;;;;7.87;7.77;;;15.10;99.90;;;;;;5101576;28;20480;-67
2023/10/08 06:44:25;;;;;;;7.87;7.77;;;15.20;99.90;;;;;;5089115;28;20486;-67
2023/10/08 06:46:54;;;;;;;8.07;7.97;;;15.30;99.90;;;;;;5091621;28;20544;-67
2023/10/08 06:49:23;;;;;;;7.70;7.60;;;15.40;99.90;;;;;;5091150;28;20877;-67
2023/10/08 06:51:53;;;;;;;8.37;8.27;;;15.30;99.90;;;;;;5096239;28;20477;-67
2023/10/08 06:54:22;;;;;;;8.27;8.17;;;15.40;99.90;;;;;;5099944;28;20892;-67
2023/10/08 06:56:53;;;;;;;8.33;8.23;;;15.40;99.90;;;;;;5096302;28;21039;-67
2023/10/08 06:59:23;;;;;;;8.00;7.90;;;15.40;99.90;;;;;;5085279;28;20462;-67
2023/10/08 07:01:51;;;;;;;8.03;7.93;;;15.40;99.90;;;;;;5087263;28;20462;-67
2023/10/08 07:04:18;;;;;;;8.10;8.00;;;15.60;99.90;;;;;;5090341;28;20466;-67
2023/10/08 07:06:46;;;;;;;7.53;7.43;;;15.60;99.90;;;;;;5094932;28;20540;-68
2023/10/08 07:09:28;;;;;;;7.30;7.20;;;15.70;99.90;;;;;;5090394;28;20826;-67
2023/10/08 07:11:56;;;;;;;8.37;8.27;;;16.00;99.90;;;;;;5090662;28;20887;-67
2023/10/08 07:14:27;;;;;;;8.43;8.33;;;16.00;99.90;;;;;;5094477;28;20460;-67
2023/10/08 07:16:54;;;;;;;8.70;8.60;;;16.10;99.90;;;;;;5100419;28;20578;-67
2023/10/08 07:19:28;;;;;;;9.10;8.93;;;16.10;99.90;;;;;;5097496;28;20566;-67
2023/10/08 07:22:03;;;;;;;8.57;8.47;;;16.00;99.90;;;;;;5101463;28;20493;-67
2023/10/08 07:24:30;;;;;;;9.00;8.90;;;16.10;99.90;;;;;;5097001;28;20817;-67
2023/10/08 07:26:58;;;;;;;8.80;8.70;;;16.20;99.90;;;;;;5094952;28;20545;-67
2023/10/08 07:29:26;;;;;;;9.17;8.97;;;16.30;99.90;;;;;;5095493;28;20465;-67
2023/10/08 07:31:53;;;;;;;9.50;9.30;;;16.20;99.90;;;;;;5094327;28;20888;-67
2023/10/08 07:34:26;;;;;;;10.17;9.97;;;16.20;99.90;;;;;;5096010;28;20966;-68
2023/10/08 07:36:55;;;;;;;9.90;9.70;;;16.20;99.90;;;;;;5096550;28;20462;-67
2023/10/08 07:39:26;;;;;;;9.87;9.67;;;16.10;99.90;;;;;;5089245;28;20466;-67
2023/10/08 07:41:55;;;;;;;9.60;9.40;;;16.20;99.90;;;;;;5104360;28;20477;-68
2023/10/08 07:44:22;;;;;;;9.43;9.23;;;16.20;99.90;;;;;;5093326;28;20476;-67
2023/10/08 07:46:54;;;;;;;8.93;8.80;;;16.20;99.90;;;;;;5091086;28;20903;-67
2023/10/08 07:49:23;;;;;;;9.20;9.00;;;16.10;99.90;;;;;;5089945;28;20967;-68
2023/10/08 07:51:50;;;;;;;9.70;9.50;;;16.10;99.90;;;;;;5102669;28;20480;-67
2023/10/08 07:54:19;;;;;;;9.20;9.00;;;16.10;99.90;;;;;;5091352;28;20458;-67
2023/10/08 07:56:47;;;;;;;9.47;9.27;;;16.10;99.90;;;;;;5103004;28;20453;-67
2023/10/08 07:59:14;;;;;;;9.30;9.10;;;16.10;99.90;;;;;;5099450;28;20453;-68
2023/10/08 08:01:42;;;;;;;9.23;9.03;;;16.20;99.90;;;;;;5104340;28;20507;-68
2023/10/08 08:04:14;;;;;;;9.00;8.90;;;16.30;99.90;;;;;;5088134;28;20513;-67
2023/10/08 08:06:41;;;;;;;8.67;8.57;;;16.40;99.90;;;;;;5097577;28;20457;-67
2023/10/08 08:09:17;;;;;;;9.07;8.90;;;16.50;99.90;;;;;;5093337;28;20462;-67
2023/10/08 08:11:46;;;;;;;8.40;8.30;;;16.60;99.90;;;;;;5090988;28;20465;-67
2023/10/08 08:14:16;;;;;;;8.30;8.20;;;16.60;99.90;;;;;;5100125;28;20542;-67
2023/10/08 08:16:46;;;;;;;8.00;7.90;;;16.70;99.90;;;;;;5091253;28;20482;-67
2023/10/08 08:19:15;;;;;;;8.70;8.60;;;16.70;99.90;;;;;;5096624;28;20841;-67
2023/10/08 08:21:45;;;;;;;9.00;8.90;;;16.80;99.90;;;;;;5105724;27;20572;-68
2023/10/08 08:24:12;;;;;;;9.03;8.90;;;16.90;99.90;;;;;;5099369;28;20647;-67
2023/10/08 08:27:00;;;;;;;8.87;8.77;;;17.10;99.90;;;;;;5092927;28;20456;-68
2023/10/08 08:29:29;;;;;;;8.53;8.43;;;17.20;99.90;;;;;;5094214;28;20936;-68
2023/10/08 08:31:56;;;;;;;9.50;9.30;;;17.50;99.90;;;;;;5102903;28;21626;-68
2023/10/08 08:34:25;;;;;;;9.80;9.60;;;17.80;99.90;;;;;;5100985;28;20914;-67
2023/10/08 08:36:52;;;;;;;9.83;9.63;;;17.90;99.90;;;;;;5091824;28;20466;-68
2023/10/08 08:39:32;;;;;;;9.60;9.40;;;18.10;99.90;;;;;;5092191;28;20458;-68
2023/10/08 08:42:04;;;;;;;9.70;9.50;;;18.40;99.90;;;;;;5089164;28;20494;-68
2023/10/08 08:44:33;;;;;;;10.40;10.20;;;18.40;99.90;;;;;;5094579;28;20469;-67
2023/10/08 08:47:04;;;;;;;10.10;9.90;;;18.60;99.90;;;;;;5098613;28;20453;-68
2023/10/08 08:49:37;;;;;;;10.10;9.90;;;18.70;99.90;;;;;;5093440;28;20482;-67
2023/10/08 08:52:04;;;;;;;9.70;9.50;;;18.90;99.90;;;;;;5090190;28;20478;-67
2023/10/08 08:54:32;;;;;;;10.63;10.43;;;18.90;99.90;;;;;;5098463;28;20466;-67
2023/10/08 08:57:03;;;;;;;9.80;9.60;;;18.90;99.90;;;;;;5095431;28;20458;-67
2023/10/08 08:59:31;;;;;;;11.10;10.80;;;19.00;99.90;;;;;;5093582;28;20858;-67
2023/10/08 09:02:00;;;;;;;10.00;9.80;;;19.00;99.90;;;;;;5093967;28;20481;-67
2023/10/08 09:04:32;;;;;;;10.20;10.00;;;19.20;99.90;;;;;;5096737;27;20877;-67
2023/10/08 09:07:03;;;;;;;10.03;9.83;;;19.30;99.90;;;;;;5083451;28;20458;-66
2023/10/08 09:09:32;;;;;;;10.10;9.90;;;19.30;99.90;;;;;;5090973;28;20473;-67
2023/10/08 09:12:04;;;;;;;10.00;9.80;;;19.20;99.90;;;;;;5097222;28;20461;-67
2023/10/08 09:14:33;;;;;;;10.00;9.80;;;19.30;99.90;;;;;;5098971;28;20468;-67
2023/10/08 09:17:04;;;;;;;9.60;9.40;;;19.40;99.90;;;;;;5094448;28;20476;-68
2023/10/08 09:19:37;;;;;;;9.60;9.40;;;19.50;99.90;;;;;;5089620;28;20964;-67
2023/10/08 09:22:05;;;;;;;10.10;9.90;;;19.60;99.90;;;;;;5099767;28;20499;-67
2023/10/08 09:24:36;;;;;;;9.87;9.67;;;19.80;99.90;;;;;;5087806;28;20464;-67
2023/10/08 09:27:03;;;;;;;9.50;9.30;;;19.90;99.90;;;;;;5097213;28;20493;-67
2023/10/08 09:29:31;;;;;;;10.33;10.13;;;20.20;99.90;;;;;;5090082;27;20462;-67
2023/10/08 09:31:58;;;;;;;10.30;10.10;;;20.50;99.90;;;;;;5099918;28;21383;-68
2023/10/08 09:34:29;;;;;;;10.70;10.50;;;20.60;99.90;;;;;;5103928;28;20457;-67
2023/10/08 09:37:00;;;;;;;10.40;10.20;;;20.70;99.90;;;;;;5097536;28;21339;-67
2023/10/08 09:39:30;;;;;;;10.33;10.13;;;20.60;99.90;;;;;;5086926;28;20481;-67
2023/10/08 09:41:58;;;;;;;9.67;9.47;;;21.00;99.90;;;;;;5092983;28;20945;-67
2023/10/08 09:44:26;;;;;;;9.40;9.20;;;21.20;99.90;;;;;;5091167;28;20462;-67
2023/10/08 09:47:04;;;;;;;9.90;9.70;;;21.30;99.90;;;;;;5091269;28;20461;-67
2023/10/08 09:49:33;;;;;;;9.90;9.70;;;21.60;99.90;;;;;;5098281;28;20553;-68
2023/10/08 09:52:05;;;;;;;9.80;9.60;;;21.80;99.90;;;;;;5099668;28;20982;-67
2023/10/08 09:54:39;;;;;;;9.90;9.70;;;21.80;99.90;;;;;;5087066;28;20546;-67
2023/10/08 09:57:07;;;;;;;9.80;9.60;;;21.90;99.90;;;;;;5096691;28;20461;-67
2023/10/08 09:59:35;;;;;;;9.93;9.73;;;21.80;99.90;;;;;;5094813;28;20462;-68
2023/10/08 10:02:03;;;;;;;9.83;9.63;;;21.90;99.90;;;;;;5095327;28;20881;-67
2023/10/08 10:04:34;;;;;;;9.87;9.67;;;22.20;99.90;;;;;;5095487;28;20864;-67
2023/10/08 10:07:12;;;;;;;10.00;9.80;;;22.00;99.90;;;;;;5085371;28;20493;-67
2023/10/08 10:09:43;;;;;;;9.40;9.20;;;22.00;99.90;;;;;;5094916;28;20469;-68
2023/10/08 10:12:14;;;;;;;9.37;9.17;;;21.60;99.90;;;;;;5087948;28;20497;-67
2023/10/08 10:14:45;;;;;;;9.10;9.00;;;21.40;99.90;;;;;;5095690;28;20456;-67
2023/10/08 10:17:16;;;;;;;8.93;8.83;;;21.50;99.90;;;;;;5098447;28;20473;-67
2023/10/08 10:19:45;;;;;;;9.63;9.43;;;21.80;99.90;;;;;;5089615;28;20542;-68
2023/10/08 10:22:16;;;;;;;9.50;9.30;;;21.70;99.90;;;;;;5086655;28;20830;-68
2023/10/08 10:24:45;;;;;;;9.77;9.57;;;21.90;99.90;;;;;;5090631;28;20519;-67
2023/10/08 10:27:15;;;;;;;9.90;9.70;;;22.40;99.90;;;;;;5089837;28;20479;-68
2023/10/08 10:29:44;;;;;;;9.77;9.57;;;22.50;99.90;;;;;;5088316;28;20497;-67
2023/10/08 10:32:14;;;;;;;9.70;9.50;;;22.60;99.90;;;;;;5095750;28;20973;-68
2023/10/08 10:34:44;;;;;;;9.90;9.70;;;23.10;99.90;;;;;;5089014;28;20470;-68
2023/10/08 10:37:19;;;;;;;10.00;9.80;;;23.30;99.90;;;;;;5092883;28;21017;-68
2023/10/08 10:39:59;;;;;;;9.97;9.77;;;23.20;99.90;;;;;;5088355;28;20551;-68
2023/10/08 10:42:28;;;;;;;9.93;9.73;;;23.10;99.90;;;;;;5089271;28;20508;-67
2023/10/08 10:44:56;;;;;;;9.90;9.70;;;22.70;99.90;;;;;;5090895;28;20932;-68
2023/10/08 10:47:26;;;;;;;10.37;10.17;;;22.80;99.90;;;;;;5081148;28;20465;-68
2023/10/08 10:50:10;;;;;;;10.10;9.90;;;22.60;99.90;;;;;;5102699;28;20462;-68
2023/10/08 10:52:44;;;;;;;10.50;10.30;;;22.80;99.90;;;;;;5095383;28;20557;-67
2023/10/08 10:55:23;;;;;;;9.80;9.60;;;23.00;99.90;;;;;;5105200;28;21045;-67
2023/10/08 10:58:04;;;;;;;10.70;10.50;;;22.80;99.90;;;;;;5089971;28;20544;-67
2023/10/08 11:00:56;;;;;;;10.00;9.80;;;22.90;99.90;;;;;;5099330;28;20477;-67
2023/10/08 11:03:24;;;;;;;10.57;10.37;;;23.40;99.90;;;;;;5098041;28;20470;-68
2023/10/08 11:05:54;;;;;;;10.70;10.50;;;23.80;99.90;;;;;;5103350;28;20496;-68
2023/10/08 11:08:26;;;;;;;10.47;10.27;;;24.00;99.90;;;;;;5090375;28;20466;-67
2023/10/08 11:10:58;;;;;;;10.70;10.50;;;24.30;99.90;;;;;;5100143;27;20461;-68
2023/10/08 11:13:28;;;;;;;10.50;10.30;;;24.60;99.90;;;;;;5103252;28;20564;-67
2023/10/08 11:15:57;;;;;;;10.53;10.33;;;24.90;99.90;;;;;;5092281;28;20505;-68
2023/10/08 11:18:27;;;;;;;10.17;9.97;;;25.00;99.90;;;;;;5099629;28;20544;-68
2023/10/08 11:21:13;;;;;;;10.20;10.00;;;25.00;99.90;;;;;;5098588;28;20528;-67
2023/10/08 11:23:46;;;;;;;10.93;10.73;;;24.50;99.90;;;;;;5102517;28;20456;-68
2023/10/08 11:26:16;;;;;;;10.70;10.50;;;24.40;99.90;;;;;;5099505;28;20454;-67
2023/10/08 11:28:47;;;;;;;10.10;9.90;;;24.20;99.90;;;;;;5091127;28;20785;-68
2023/10/08 11:31:19;;;;;;;10.33;10.13;;;24.30;99.90;;;;;;5103683;28;20457;-67
2023/10/08 11:33:53;;;;;;;10.73;10.53;;;24.40;99.90;;;;;;5098284;28;20456;-68
2023/10/08 11:36:27;;;;;;;10.57;10.37;;;24.70;99.90;;;;;;5093889;28;20951;-67
2023/10/08 11:39:00;;;;;;;11.30;11.00;;;24.60;99.90;;;;;;5101495;28;20462;-68
2023/10/08 11:41:30;;;;;;;10.97;10.77;;;24.80;99.90;;;;;;5107780;28;20944;-68
2023/10/08 11:43:58;;;;;;;11.20;10.97;;;24.80;99.90;;;;;;5100731;28;20469;-67
2023/10/08 11:46:27;;;;;;;10.87;10.67;;;24.70;99.90;;;;;;5092971;28;20462;-68
2023/10/08 11:48:57;;;;;;;10.40;10.20;;;24.10;99.90;;;;;;5109217;28;20483;-68
2023/10/08 11:51:25;;;;;;;10.60;10.40;;;24.20;99.90;;;;;;5092374;28;20506;-68
2023/10/08 11:53:53;;;;;;;10.83;10.63;;;24.00;99.90;;;;;;5091575;28;20461;-68
2023/10/08 11:56:23;;;;;;;11.03;10.83;;;23.90;99.90;;;;;;5104050;28;20470;-68
2023/10/08 11:58:52;;;;;;;9.77;9.57;;;23.90;99.90;;;;;;5091803;28;20903;-67
2023/10/08 12:01:20;;;;;;;9.90;9.70;;;23.90;99.90;;;;;;5106651;28;20487;-68
2023/10/08 12:03:49;;;;;;;10.00;9.80;;;23.70;99.90;;;;;;5109548;28;20843;-67
2023/10/08 12:06:18;;;;;;;10.13;9.93;;;23.40;99.90;;;;;;5091362;28;20910;-69
2023/10/08 12:08:46;;;;;;;9.77;9.57;;;23.60;99.90;;;;;;5099679;28;20458;-68
2023/10/08 12:11:16;;;;;;;9.43;9.23;;;23.50;99.90;;;;;;5091275;28;20492;-68
2023/10/08 12:13:45;;;;;;;9.00;8.90;;;23.40;99.90;;;;;;5104313;28;20453;-68
2023/10/08 12:16:18;;;;;;;9.30;9.10;;;23.30;99.90;;;;;;5109334;28;20477;-68
2023/10/08 12:18:48;;;;;;;9.77;9.57;;;23.20;99.90;;;;;;5097568;28;20472;-67
2023/10/08 12:21:16;;;;;;;9.77;9.57;;;23.20;99.90;;;;;;5102002;28;20905;-67
2023/10/08 12:23:45;;;;;;;9.77;9.57;;;23.10;99.90;;;;;;5103375;28;20944;-65
2023/10/08 12:26:15;;;;;;;10.00;9.80;;;23.00;99.90;;;;;;5097147;28;20605;-67
2023/10/08 12:28:45;;;;;;;10.17;9.97;;;22.70;99.90;;;;;;5096373;28;20993;-64
2023/10/08 12:31:16;;;;;;;9.50;9.30;;;22.70;99.90;;;;;;5103050;28;20481;-66
2023/10/08 12:33:44;;;;;;;9.90;9.70;;;22.50;99.90;;;;;;5095254;28;20449;-65
2023/10/08 12:36:12;;;;;;;9.10;9.00;;;22.40;99.90;;;;;;5095775;28;20972;-65
2023/10/08 12:38:41;;;;;;;9.10;9.00;;;22.40;99.90;;;;;;5101786;28;20448;-66
2023/10/08 12:41:13;;;;;;;8.60;8.50;;;22.40;99.90;;;;;;5096640;28;20441;-66
2023/10/08 12:43:44;;;;;;;8.80;8.70;;;22.10;99.90;;;;;;5101238;28;20481;-65
2023/10/08 12:46:19;;;;;;;8.73;8.63;;;22.10;99.90;;;;;;5102602;28;20450;-65
2023/10/08 12:48:47;;;;;;;8.47;8.37;;;22.40;99.90;;;;;;5097916;28;20496;-65
2023/10/08 12:51:15;;;;;;;8.40;8.30;;;22.50;99.90;;;;;;5106846;28;20446;-66
2023/10/08 12:53:50;;;;;;;8.63;8.53;;;23.00;99.90;;;;;;5109572;28;21000;-65
2023/10/08 12:56:21;;;;;;;9.30;9.10;;;23.70;99.90;;;;;;5089377;28;20454;-66
2023/10/08 12:58:49;;;;;;;10.40;10.20;;;24.30;99.90;;;;;;5105392;28;20453;-66
2023/10/08 13:01:19;;;;;;;9.90;9.70;;;24.40;99.90;;;;;;5090399;28;20473;-66
2023/10/08 13:03:48;;;;;;;10.40;10.20;;;24.40;99.90;;;;;;5105459;28;20924;-66
2023/10/08 13:06:21;;;;;;;10.57;10.37;;;24.20;99.90;;;;;;5095559;28;20472;-66
2023/10/08 13:08:49;;;;;;;9.80;9.60;;;24.60;99.90;;;;;;5094813;28;20471;-66
2023/10/08 13:11:15;;;;;;;9.70;9.50;;;25.00;99.90;;;;;;5104680;28;20460;-67
2023/10/08 13:13:44;;;;;;;10.90;10.70;;;24.90;99.90;;;;;;5108780;28;20457;-66
2023/10/08 13:16:11;;;;;;;11.17;10.97;;;25.00;99.90;;;;;;5094510;28;20492;-66
2023/10/08 13:18:43;;;;;;;10.60;10.40;;;25.20;99.90;;;;;;5101730;28;20457;-67
2023/10/08 13:21:10;;;;;;;10.93;10.73;;;25.40;99.90;;;;;;5094850;28;20961;-66
2023/10/08 13:23:39;;;;;;;10.80;10.60;;;25.10;99.90;;;;;;5108442;28;20457;-67